createdAt,value
2018-01-15T00:01:52.302Z,16.33
2018-01-15T00:04:19.834Z,11.60
2018-01-15T00:06:47.371Z,11.87
2018-01-15T00:09:14.922Z,18.13
2018-01-15T00:11:42.457Z,12.60
2018-01-15T00:14:10.042Z,12.77
2018-01-15T00:16:37.642Z,11.40
2018-01-15T00:19:05.278Z,13.77
2018-01-15T00:21:32.878Z,12.83
2018-01-15T00:24:00.483Z,13.97
2018-01-15T00:26:28.074Z,12.63
2018-01-15T00:28:55.607Z,12.17
2018-01-15T00:31:23.141Z,14.10
2018-01-15T00:33:50.682Z,13.10
2018-01-15T00:36:18.217Z,16.23
2018-01-15T00:38:45.821Z,12.27
2018-01-15T00:41:13.419Z,13.30
2018-01-15T00:43:40.950Z,15.80
2018-01-15T00:46:08.550Z,15.83
2018-01-15T00:48:36.093Z,15.63
2018-01-15T00:51:03.731Z,15.17
2018-01-15T00:53:31.330Z,18.77
2018-01-15T00:55:58.925Z,18.30
2018-01-15T00:58:26.530Z,17.10
2018-01-15T01:00:54.126Z,16.40
2018-01-15T01:03:21.714Z,18.50
2018-01-15T01:05:49.261Z,16.83
2018-01-15T01:08:16.861Z,19.17
2018-01-15T01:10:44.446Z,14.83
2018-01-15T01:13:12.039Z,19.00
2018-01-15T01:15:39.630Z,20.27
2018-01-15T01:18:07.169Z,20.40
2018-01-15T01:20:34.729Z,21.77
2018-01-15T01:23:02.285Z,17.80
2018-01-15T01:25:29.886Z,18.37
2018-01-15T01:27:57.482Z,15.70
2018-01-15T01:30:25.085Z,22.03
2018-01-15T01:32:52.658Z,23.87
2018-01-15T01:35:20.210Z,16.63
2018-01-15T01:37:47.806Z,18.17
2018-01-15T01:40:15.451Z,27.63
2018-01-15T01:42:43.021Z,19.90
2018-01-15T01:45:10.565Z,20.43
2018-01-15T01:47:38.113Z,18.20
2018-01-15T01:50:05.654Z,24.20
2018-01-15T01:52:33.316Z,19.53
2018-01-15T01:55:00.866Z,19.47
2018-01-15T01:57:28.406Z,21.30
2018-01-15T01:59:55.949Z,16.90
2018-01-15T02:02:23.485Z,27.37
2018-01-15T02:04:51.126Z,40.30
2018-01-15T02:07:18.661Z,17.43
2018-01-15T02:09:46.271Z,19.33
2018-01-15T02:12:13.822Z,22.20
2018-01-15T02:14:41.365Z,27.03
2018-01-15T02:17:08.951Z,20.53
2018-01-15T02:19:36.570Z,29.13
2018-01-15T02:22:04.118Z,19.97
2018-01-15T02:24:31.742Z,20.13
2018-01-15T02:26:59.289Z,22.93
2018-01-15T02:29:26.963Z,24.30
2018-01-15T02:31:54.523Z,19.10
2018-01-15T02:34:22.070Z,22.57
2018-01-15T02:36:49.622Z,24.07
2018-01-15T02:39:17.163Z,22.00
2018-01-15T02:41:44.747Z,21.93
2018-01-15T02:44:12.291Z,21.80
2018-01-15T02:46:39.897Z,18.57
2018-01-15T02:49:07.498Z,25.80
2018-01-15T02:51:35.037Z,21.73
2018-01-15T02:54:02.621Z,23.30
2018-01-15T02:56:30.168Z,23.23
2018-01-15T02:58:57.767Z,22.47
2018-01-15T03:01:25.314Z,23.67
2018-01-15T03:03:52.858Z,30.07
2018-01-15T03:06:20.456Z,21.13
2018-01-15T03:08:48.006Z,26.80
2018-01-15T03:11:15.551Z,19.77
2018-01-15T03:13:43.167Z,20.90
2018-01-15T03:16:10.708Z,22.70
2018-01-15T03:18:38.299Z,16.10
2018-01-15T03:21:05.837Z,21.70
2018-01-15T03:23:33.377Z,20.97
2018-01-15T03:26:00.986Z,17.47
2018-01-15T03:28:28.534Z,22.57
2018-01-15T03:30:56.187Z,21.37
2018-01-15T03:33:23.725Z,22.60
2018-01-15T03:35:51.326Z,21.83
2018-01-15T03:38:18.939Z,21.20
2018-01-15T03:40:46.533Z,19.30
2018-01-15T03:43:14.182Z,19.23
2018-01-15T03:45:41.721Z,19.73
2018-01-15T03:48:09.318Z,24.43
2018-01-15T03:50:36.926Z,19.20
2018-01-15T03:53:04.465Z,22.47
2018-01-15T03:55:32.058Z,26.30
2018-01-15T03:57:59.598Z,19.57
2018-01-15T04:00:27.142Z,23.10
2018-01-15T04:02:54.685Z,22.80
2018-01-15T04:05:22.286Z,27.33
2018-01-15T04:07:49.962Z,24.40
2018-01-15T04:10:17.501Z,19.40
2018-01-15T04:12:45.102Z,24.37
2018-01-15T04:15:12.645Z,25.53
2018-01-15T04:17:40.186Z,25.40
2018-01-15T04:20:07.797Z,20.37
2018-01-15T04:22:35.398Z,20.30
2018-01-15T04:25:02.999Z,21.10
2018-01-15T04:27:30.519Z,16.70
2018-01-15T04:29:58.115Z,23.93
2018-01-15T04:32:25.759Z,22.73
2018-01-15T04:34:53.298Z,18.37
2018-01-15T04:37:20.894Z,18.50
2018-01-15T04:39:48.503Z,18.73
2018-01-15T04:42:16.046Z,19.07
2018-01-15T04:44:43.649Z,20.37
2018-01-15T04:47:11.190Z,22.77
2018-01-15T04:49:38.730Z,21.30
2018-01-15T04:52:06.340Z,21.43
2018-01-15T04:54:33.934Z,21.13
2018-01-15T04:57:01.575Z,16.87
2018-01-15T04:59:29.121Z,20.30
2018-01-15T05:01:56.672Z,20.87
2018-01-15T05:04:24.286Z,23.50
2018-01-15T05:06:51.825Z,40.40
2018-01-15T05:09:19.467Z,53.83
2018-01-15T05:11:47.045Z,88.87
2018-01-15T05:14:14.638Z,81.10
2018-01-15T05:16:42.242Z,25.27
2018-01-15T05:19:09.773Z,20.53
2018-01-15T05:21:37.422Z,22.80
2018-01-15T05:24:04.961Z,32.00
2018-01-15T05:26:32.570Z,25.03
2018-01-15T05:29:00.114Z,19.33
2018-01-15T05:31:27.649Z,20.50
2018-01-15T05:33:55.298Z,20.30
2018-01-15T05:36:22.838Z,20.53
2018-01-15T05:38:50.379Z,22.10
2018-01-15T05:41:17.925Z,20.77
2018-01-15T05:43:45.522Z,23.00
2018-01-15T05:46:13.102Z,27.67
2018-01-15T05:48:40.639Z,21.03
2018-01-15T05:51:08.185Z,20.67
2018-01-15T05:53:35.736Z,31.47
2018-01-15T05:56:03.277Z,25.60
2018-01-15T05:58:30.857Z,25.10
2018-01-15T06:00:58.393Z,36.93
2018-01-15T06:03:26.002Z,42.17
2018-01-15T06:05:53.606Z,35.47
2018-01-15T06:08:21.145Z,27.60
2018-01-15T06:10:48.734Z,28.50
2018-01-15T06:13:16.316Z,35.43
2018-01-15T06:15:43.853Z,38.10
2018-01-15T06:18:11.398Z,39.93
2018-01-15T06:20:38.942Z,35.67
2018-01-15T06:23:06.538Z,41.67
2018-01-15T06:25:34.086Z,37.83
2018-01-15T06:28:01.622Z,29.77
2018-01-15T06:30:29.235Z,30.80
2018-01-15T06:32:56.830Z,27.30
2018-01-15T06:35:24.443Z,26.27
2018-01-15T06:37:52.038Z,30.23
2018-01-15T06:40:19.573Z,28.03
2018-01-15T06:42:47.118Z,31.13
2018-01-15T06:45:14.654Z,33.80
2018-01-15T06:47:42.326Z,26.47
2018-01-15T06:50:09.865Z,32.40
2018-01-15T06:52:37.406Z,23.40
2018-01-15T06:55:04.958Z,23.07
2018-01-15T06:57:32.493Z,28.10
2018-01-15T07:00:00.091Z,39.00
2018-01-15T07:02:27.633Z,34.03
2018-01-15T07:04:55.175Z,26.47
2018-01-15T07:07:22.782Z,37.70
2018-01-15T07:09:50.326Z,26.30
2018-01-15T07:12:17.942Z,22.80
2018-01-15T07:14:45.482Z,28.10
2018-01-15T07:17:13.044Z,29.17
2018-01-15T07:19:40.585Z,25.67
2018-01-15T07:22:08.121Z,24.07
2018-01-15T07:24:35.738Z,28.13
2018-01-15T07:27:03.273Z,28.23
2018-01-15T07:29:30.876Z,23.97
2018-01-15T07:31:58.478Z,27.17
2018-01-15T07:34:25.990Z,20.97
2018-01-15T07:36:53.569Z,26.63
2018-01-15T07:39:21.103Z,29.73
2018-01-15T07:41:48.642Z,22.17
2018-01-15T07:44:16.198Z,21.87
2018-01-15T07:46:43.794Z,21.67
2018-01-15T07:49:11.385Z,18.00
2018-01-15T07:51:38.982Z,25.57
2018-01-15T07:54:06.529Z,20.73
2018-01-15T07:56:34.078Z,21.60
2018-01-15T07:59:01.622Z,25.70
2018-01-15T08:01:29.201Z,34.03
2018-01-15T08:03:56.745Z,44.00
2018-01-15T08:06:24.285Z,42.90
2018-01-15T08:08:51.830Z,35.87
2018-01-15T08:11:19.365Z,33.87
2018-01-15T08:13:47.034Z,27.37
2018-01-15T08:16:14.578Z,27.73
2018-01-15T08:18:42.178Z,29.17
2018-01-15T08:21:09.722Z,34.20
2018-01-15T08:23:37.266Z,30.40
2018-01-15T08:26:05.565Z,27.80
2018-01-15T08:28:33.106Z,36.60
2018-01-15T08:31:00.703Z,39.10
2018-01-15T08:33:28.250Z,47.40
2018-01-15T08:35:55.900Z,40.53
2018-01-15T08:38:23.486Z,50.63
2018-01-15T08:40:51.022Z,39.00
2018-01-15T08:43:18.630Z,20.23
2018-01-15T08:45:46.182Z,24.17
2018-01-15T08:48:13.722Z,45.20
2018-01-15T08:50:41.334Z,39.80
2018-01-15T08:53:08.869Z,25.60
2018-01-15T08:55:36.466Z,24.40
2018-01-15T08:58:04.010Z,30.70
2018-01-15T09:00:31.549Z,28.17
2018-01-15T09:02:59.134Z,27.47
2018-01-15T09:05:26.730Z,38.27
2018-01-15T09:07:54.388Z,31.70
2018-01-15T09:10:21.936Z,30.27
2018-01-15T09:12:49.481Z,25.17
2018-01-15T09:15:17.122Z,33.70
2018-01-15T09:17:44.727Z,27.50
2018-01-15T09:20:12.331Z,26.37
2018-01-15T09:22:39.927Z,31.50
2018-01-15T09:25:07.507Z,29.63
2018-01-15T09:27:35.086Z,39.83
2018-01-15T09:30:02.630Z,40.10
2018-01-15T09:32:30.169Z,41.93
2018-01-15T09:34:57.720Z,31.30
2018-01-15T09:37:25.318Z,31.73
2018-01-15T09:39:52.905Z,36.70
2018-01-15T09:42:20.445Z,45.97
2018-01-15T09:44:47.988Z,29.57
2018-01-15T09:47:15.562Z,26.60
2018-01-15T09:49:43.102Z,28.70
2018-01-15T09:52:10.686Z,27.03
2018-01-15T09:54:38.282Z,60.53
2018-01-15T09:57:05.826Z,45.57
2018-01-15T09:59:33.378Z,41.83
2018-01-15T10:02:00.983Z,32.30
2018-01-15T10:04:28.570Z,43.87
2018-01-15T10:06:56.111Z,37.10
2018-01-15T10:09:23.650Z,20.63
2018-01-15T10:11:51.254Z,18.37
2018-01-15T10:14:18.794Z,29.23
2018-01-15T10:16:46.383Z,24.33
2018-01-15T10:19:13.983Z,31.27
2018-01-15T10:21:41.582Z,28.17
2018-01-15T10:24:09.185Z,30.63
2018-01-15T10:26:37.550Z,25.17
2018-01-15T10:29:05.165Z,25.27
2018-01-15T10:31:32.763Z,26.10
2018-01-15T10:34:00.306Z,26.07
2018-01-15T10:36:27.914Z,26.47
2018-01-15T10:38:55.526Z,37.23
2018-01-15T10:41:23.198Z,24.57
2018-01-15T10:43:50.742Z,30.80
2018-01-15T10:46:18.277Z,30.40
2018-01-15T10:48:45.827Z,33.30
2018-01-15T10:51:13.424Z,33.93
2018-01-15T10:53:41.086Z,27.87
2018-01-15T10:56:08.637Z,28.93
2018-01-15T10:58:37.047Z,30.60
2018-01-15T11:01:10.262Z,40.10
2018-01-15T11:03:37.814Z,37.67
2018-01-15T11:06:05.417Z,28.90
2018-01-15T11:08:32.961Z,28.57
2018-01-15T11:11:00.502Z,45.43
2018-01-15T11:13:28.052Z,34.50
2018-01-15T11:15:55.677Z,37.93
2018-01-15T11:18:23.385Z,24.27
2018-01-15T11:20:50.845Z,36.13
2018-01-15T11:23:18.390Z,26.70
2018-01-15T11:25:45.941Z,29.23
2018-01-15T11:28:13.497Z,28.23
2018-01-15T11:30:41.154Z,36.13
2018-01-15T11:33:08.763Z,33.30
2018-01-15T11:35:36.306Z,32.13
2018-01-15T11:38:03.919Z,39.30
2018-01-15T11:40:31.464Z,39.17
2018-01-15T11:42:59.054Z,37.67
2018-01-15T11:45:26.594Z,34.10
2018-01-15T11:47:54.199Z,51.43
2018-01-15T11:50:21.764Z,50.90
2018-01-15T11:52:49.316Z,63.53
2018-01-15T11:55:16.918Z,40.87
2018-01-15T11:57:44.462Z,41.47
2018-01-15T12:00:12.003Z,43.60
2018-01-15T12:02:39.557Z,42.47
2018-01-15T12:05:07.159Z,57.23
2018-01-15T12:07:34.742Z,25.43
2018-01-15T12:10:02.285Z,22.23
2018-01-15T12:12:29.887Z,42.53
2018-01-15T12:14:57.493Z,35.50
2018-01-15T12:17:25.034Z,23.87
2018-01-15T12:19:52.627Z,37.57
2018-01-15T12:22:20.170Z,30.50
2018-01-15T12:24:47.711Z,34.70
2018-01-15T12:27:15.320Z,28.93
2018-01-15T12:29:42.854Z,29.27
2018-01-15T12:32:10.445Z,29.97
2018-01-15T12:34:38.074Z,24.93
2018-01-15T12:37:05.614Z,26.33
2018-01-15T12:39:33.162Z,44.97
2018-01-15T12:42:00.759Z,38.13
2018-01-15T12:44:28.345Z,28.17
2018-01-15T12:46:55.883Z,29.23
2018-01-15T12:49:23.422Z,31.80
2018-01-15T12:51:50.977Z,35.47
2018-01-15T12:54:18.514Z,25.30
2018-01-15T12:56:46.098Z,22.33
2018-01-15T12:59:13.637Z,21.73
2018-01-15T13:01:41.234Z,25.23
2018-01-15T13:04:08.838Z,29.67
2018-01-15T13:07:01.070Z,33.20
2018-01-15T13:09:28.682Z,29.87
2018-01-15T13:11:56.278Z,29.40
2018-01-15T13:14:23.830Z,38.70
2018-01-15T13:16:51.430Z,39.87
2018-01-15T13:19:19.102Z,36.30
2018-01-15T13:21:46.642Z,36.10
2018-01-15T13:24:14.215Z,38.50
2018-01-15T13:26:41.762Z,61.40
2018-01-15T13:29:09.310Z,59.27
2018-01-15T13:31:36.954Z,35.50
2018-01-15T13:34:04.554Z,47.97
2018-01-15T13:36:32.162Z,64.23
2018-01-15T13:38:59.710Z,63.17
2018-01-15T13:41:27.310Z,74.30
2018-01-15T13:43:54.894Z,37.47
2018-01-15T13:46:22.498Z,34.70
2018-01-15T13:48:50.038Z,60.13
2018-01-15T13:51:17.582Z,40.00
2018-01-15T13:53:45.121Z,37.27
2018-01-15T13:56:12.725Z,38.80
2018-01-15T13:58:40.262Z,35.63
2018-01-15T14:01:07.802Z,58.80
2018-01-15T14:03:35.357Z,69.23
2018-01-15T14:06:02.959Z,52.60
2018-01-15T14:08:30.630Z,44.00
2018-01-15T14:10:58.232Z,65.40
2018-01-15T14:13:25.830Z,45.80
2018-01-15T14:15:53.434Z,37.37
2018-01-15T14:18:20.969Z,41.60
2018-01-15T14:20:48.558Z,38.20
2018-01-15T14:23:16.101Z,34.97
2018-01-15T14:25:43.654Z,25.97
2018-01-15T14:28:11.202Z,26.30
2018-01-15T14:30:38.783Z,57.80
2018-01-15T14:33:06.417Z,43.10
2018-01-15T14:35:33.954Z,48.83
2018-01-15T14:38:01.494Z,52.37
2018-01-15T14:40:29.038Z,51.67
2018-01-15T14:42:56.629Z,56.57
2018-01-15T14:45:24.218Z,56.93
2018-01-15T14:47:51.822Z,126.13
2018-01-15T14:50:19.362Z,107.40
2018-01-15T14:52:46.970Z,93.17
2018-01-15T14:55:14.574Z,97.03
2018-01-15T14:57:42.240Z,58.20
2018-01-15T15:00:09.782Z,61.80
2018-01-15T15:02:37.321Z,50.50
2018-01-15T15:05:04.872Z,135.37
2018-01-15T15:07:32.422Z,139.87
2018-01-15T15:10:00.016Z,152.87
2018-01-15T15:12:27.623Z,122.90
2018-01-15T15:14:55.276Z,96.77
2018-01-15T15:17:22.834Z,96.07
2018-01-15T15:19:50.384Z,107.00
2018-01-15T15:22:18.071Z,60.20
2018-01-15T15:24:45.605Z,47.53
2018-01-15T15:27:13.142Z,51.97
2018-01-15T15:29:40.694Z,50.57
2018-01-15T15:32:08.233Z,65.03
2018-01-15T15:34:35.877Z,44.50
2018-01-15T15:37:03.409Z,44.20
2018-01-15T15:39:31.006Z,45.10
2018-01-15T15:41:58.614Z,43.13
2018-01-15T15:44:26.158Z,36.53
2018-01-15T15:46:53.770Z,43.90
2018-01-15T15:49:21.305Z,47.30
2018-01-15T15:51:48.846Z,50.00
2018-01-15T15:54:16.450Z,52.77
2018-01-15T15:56:43.986Z,46.33
2018-01-15T15:59:11.574Z,53.00
2018-01-15T16:01:39.105Z,76.87
2018-01-15T16:04:06.646Z,63.87
2018-01-15T16:06:34.251Z,60.83
2018-01-15T16:09:01.785Z,51.50
2018-01-15T16:11:29.394Z,53.47
2018-01-15T16:13:57.001Z,50.63
2018-01-15T16:16:24.585Z,52.03
2018-01-15T16:18:52.193Z,61.73
2018-01-15T16:21:19.790Z,59.40
2018-01-15T16:23:47.419Z,76.63
2018-01-15T16:26:15.014Z,85.47
2018-01-15T16:28:42.555Z,96.57
2018-01-15T16:31:10.162Z,88.77
2018-01-15T16:33:37.705Z,74.00
2018-01-15T16:36:05.347Z,74.77
2018-01-15T16:38:32.890Z,75.67
2018-01-15T16:41:00.433Z,68.97
2018-01-15T16:43:28.042Z,89.47
2018-01-15T16:45:55.661Z,86.53
2018-01-15T16:48:23.338Z,80.57
2018-01-15T16:50:50.880Z,78.20
2018-01-15T16:53:18.478Z,47.13
2018-01-15T16:55:46.026Z,55.60
2018-01-15T16:58:13.568Z,49.80
2018-01-15T17:00:41.247Z,58.10
2018-01-15T17:03:08.787Z,52.70
2018-01-15T17:05:36.391Z,47.27
2018-01-15T17:08:03.941Z,54.03
2018-01-15T17:10:31.483Z,60.90
2018-01-15T17:12:59.129Z,67.90
2018-01-15T17:15:26.670Z,79.83
2018-01-15T17:17:54.269Z,67.87
2018-01-15T17:20:21.870Z,51.87
2018-01-15T17:22:49.410Z,79.80
2018-01-15T17:25:17.050Z,68.77
2018-01-15T17:27:44.706Z,61.70
2018-01-15T17:30:12.308Z,53.10
2018-01-15T17:32:39.914Z,44.83
2018-01-15T17:35:07.514Z,56.10
2018-01-15T17:37:35.126Z,53.80
2018-01-15T17:40:02.723Z,61.27
2018-01-15T17:42:30.279Z,53.47
2018-01-15T17:44:57.837Z,56.80
2018-01-15T17:47:25.507Z,52.73
2018-01-15T17:49:53.097Z,57.20
2018-01-15T17:52:20.637Z,48.07
2018-01-15T17:54:48.177Z,46.17
2018-01-15T17:57:15.787Z,45.80
2018-01-15T17:59:43.333Z,67.67
2018-01-15T18:02:10.914Z,43.10
2018-01-15T18:04:38.450Z,47.07
2018-01-15T18:07:05.990Z,56.23
2018-01-15T18:09:33.602Z,47.40
2018-01-15T18:12:01.206Z,53.07
2018-01-15T18:14:28.886Z,60.43
2018-01-15T18:16:56.481Z,65.47
2018-01-15T18:19:24.082Z,46.10
2018-01-15T18:21:51.697Z,46.60
2018-01-15T18:24:19.242Z,48.83
2018-01-15T18:26:46.903Z,51.13
2018-01-15T18:29:14.502Z,47.00
2018-01-15T18:31:42.050Z,36.63
2018-01-15T18:34:09.598Z,49.47
2018-01-15T18:36:37.139Z,42.20
2018-01-15T18:39:04.797Z,48.40
2018-01-15T18:41:32.406Z,62.00
2018-01-15T18:43:59.942Z,44.40
2018-01-15T18:46:27.489Z,48.77
2018-01-15T18:48:55.030Z,46.10
2018-01-15T18:51:22.669Z,72.03
2018-01-15T18:53:50.212Z,63.63
2018-01-15T18:56:17.753Z,42.43
2018-01-15T18:58:45.306Z,59.83
2018-01-15T19:01:12.846Z,56.73
2018-01-15T19:03:40.450Z,59.87
2018-01-15T19:06:08.001Z,86.13
2018-01-15T19:08:35.545Z,54.97
2018-01-15T19:11:03.098Z,55.13
2018-01-15T19:13:30.642Z,55.83
2018-01-15T19:15:58.253Z,47.10
2018-01-15T19:18:25.850Z,55.57
2018-01-15T19:20:53.453Z,86.70
2018-01-15T19:23:21.006Z,58.40
2018-01-15T19:25:48.543Z,64.30
2018-01-15T19:28:16.178Z,59.00
2018-01-15T19:30:43.754Z,58.80
2018-01-15T19:33:11.333Z,54.23
2018-01-15T19:35:44.354Z,61.40
2018-01-15T19:38:13.398Z,60.70
2018-01-15T19:40:41.050Z,52.37
2018-01-15T19:46:18.214Z,73.33
2018-01-15T19:48:51.302Z,60.80
2018-01-15T19:51:24.598Z,70.33
2018-01-15T19:53:57.808Z,59.10
2018-01-15T19:56:30.817Z,53.40
2018-01-15T19:59:03.943Z,63.40
2018-01-15T20:01:37.226Z,54.77
2018-01-15T20:04:10.350Z,56.67
2018-01-15T20:06:43.671Z,62.13
2018-01-15T20:09:16.753Z,54.37
2018-01-15T20:11:44.455Z,59.50
2018-01-15T20:14:12.046Z,66.00
2018-01-15T20:16:39.582Z,54.53
2018-01-15T20:19:07.138Z,65.13
2018-01-15T20:21:34.722Z,81.77
2018-01-15T20:24:02.307Z,70.93
2018-01-15T20:26:29.851Z,48.70
2018-01-15T20:28:57.403Z,56.60
2018-01-15T20:31:24.958Z,53.07
2018-01-15T20:33:52.557Z,56.67
2018-01-15T20:36:20.138Z,54.27
2018-01-15T20:38:47.735Z,53.43
2018-01-15T20:41:15.273Z,47.60
2018-01-15T20:43:42.893Z,48.50
2018-01-15T20:46:10.435Z,39.37
2018-01-15T20:48:38.086Z,44.17
2018-01-15T20:51:05.686Z,70.20
2018-01-15T20:53:33.225Z,51.50
2018-01-15T20:56:00.774Z,44.50
2018-01-15T20:58:28.371Z,53.70
2018-01-15T21:00:55.986Z,66.53
2018-01-15T21:03:23.530Z,54.97
2018-01-15T21:05:51.070Z,53.93
2018-01-15T21:08:18.675Z,52.07
2018-01-15T21:10:46.215Z,53.37
2018-01-15T21:13:13.795Z,65.70
2018-01-15T21:15:41.334Z,97.93
2018-01-15T21:18:08.878Z,118.87
2018-01-15T21:20:36.494Z,83.40
2018-01-15T21:23:04.123Z,78.20
2018-01-15T21:25:31.708Z,65.40
2018-01-15T21:27:59.307Z,62.83
2018-01-15T21:30:26.862Z,72.50
2018-01-15T21:32:54.418Z,63.30
2018-01-15T21:35:21.955Z,85.57
2018-01-15T21:37:49.630Z,111.83
2018-01-15T21:40:17.286Z,114.00
2018-01-15T21:42:44.895Z,116.63
2018-01-15T21:45:12.443Z,87.77
2018-01-15T21:47:39.989Z,61.03
2018-01-15T21:50:07.601Z,54.43
2018-01-15T21:52:35.211Z,70.70
2018-01-15T21:55:02.750Z,93.17
2018-01-15T21:57:30.354Z,58.13
2018-01-15T21:59:57.898Z,48.90
2018-01-15T22:02:25.571Z,58.53
2018-01-15T22:04:53.118Z,73.93
2018-01-15T22:07:20.662Z,52.40
2018-01-15T22:09:48.320Z,61.77
2018-01-15T22:12:15.910Z,46.87
2018-01-15T22:14:43.523Z,53.53
2018-01-15T22:17:11.061Z,54.87
2018-01-15T22:19:38.602Z,47.43
2018-01-15T22:22:06.216Z,46.30
2018-01-15T22:24:33.762Z,41.33
2018-01-15T22:27:01.370Z,40.13
2018-01-15T22:29:28.909Z,50.90
2018-01-15T22:31:56.506Z,44.63
2018-01-15T22:34:24.115Z,47.97
2018-01-15T22:36:51.758Z,46.70
2018-01-15T22:39:19.334Z,38.70
2018-01-15T22:41:46.874Z,34.63
2018-01-15T22:44:14.413Z,47.60
2018-01-15T22:46:41.966Z,53.10
2018-01-15T22:49:09.511Z,43.27
2018-01-15T22:51:37.094Z,43.83
2018-01-15T22:54:04.699Z,45.20
2018-01-15T22:56:32.259Z,41.33
2018-01-15T22:58:59.874Z,50.80
2018-01-15T23:01:27.414Z,32.27
2018-01-15T23:03:55.063Z,37.60
2018-01-15T23:06:22.607Z,36.87
2018-01-15T23:08:50.154Z,37.93
2018-01-15T23:11:17.714Z,39.93
2018-01-15T23:13:45.266Z,44.50
2018-01-15T23:16:12.939Z,47.03
2018-01-15T23:18:40.539Z,38.40
2018-01-15T23:21:08.077Z,37.43
2018-01-15T23:23:35.629Z,43.23
2018-01-15T23:26:03.235Z,39.33
2018-01-15T23:28:30.846Z,34.13
2018-01-15T23:30:58.446Z,32.87
2018-01-15T23:33:26.047Z,33.83
2018-01-15T23:35:53.599Z,35.20
2018-01-15T23:38:21.145Z,31.57
2018-01-15T23:40:48.738Z,33.27
2018-01-15T23:43:16.318Z,36.10
2018-01-15T23:45:43.961Z,35.70
2018-01-15T23:48:11.501Z,32.70
2018-01-15T23:50:39.150Z,35.50
2018-01-15T23:53:06.734Z,35.50
2018-01-15T23:55:34.386Z,28.20
2018-01-15T23:58:01.982Z,37.00
